createdAt,value
2018-09-20T00:01:43.654Z,61.79
2018-09-20T00:04:12.495Z,61.73
2018-09-20T00:06:41.320Z,61.71
2018-09-20T00:09:10.159Z,60.98
2018-09-20T00:11:38.967Z,61.52
2018-09-20T00:14:07.815Z,61.80
2018-09-20T00:16:36.672Z,61.83
2018-09-20T00:19:05.513Z,62.07
2018-09-20T00:21:34.307Z,62.22
2018-09-20T00:24:03.209Z,62.15
2018-09-20T00:26:32.100Z,62.45
2018-09-20T00:29:00.993Z,62.41
2018-09-20T00:31:29.819Z,62.50
2018-09-20T00:33:59.525Z,62.49
2018-09-20T00:36:28.363Z,62.43
2018-09-20T00:38:57.200Z,62.92
2018-09-20T00:41:26.033Z,62.55
2018-09-20T00:43:54.891Z,62.73
2018-09-20T00:46:26.684Z,62.88
2018-09-20T00:48:56.386Z,62.95
2018-09-20T00:51:25.251Z,62.91
2018-09-20T00:53:54.109Z,63.08
2018-09-20T00:56:22.965Z,62.92
2018-09-20T00:58:51.802Z,61.83
2018-09-20T01:01:20.680Z,62.50
2018-09-20T01:03:49.528Z,62.76
2018-09-20T01:06:18.405Z,62.95
2018-09-20T01:08:47.239Z,63.06
2018-09-20T01:11:16.128Z,63.34
2018-09-20T01:13:44.956Z,63.22
2018-09-20T01:16:13.814Z,63.44
2018-09-20T01:18:42.656Z,63.02
2018-09-20T01:21:11.480Z,63.05
2018-09-20T01:23:40.313Z,62.98
2018-09-20T01:26:09.155Z,63.28
2018-09-20T01:28:37.994Z,63.36
2018-09-20T01:31:06.836Z,63.74
2018-09-20T01:33:35.667Z,63.89
2018-09-20T01:36:04.491Z,63.58
2018-09-20T01:38:33.335Z,63.78
2018-09-20T01:41:02.195Z,64.08
2018-09-20T01:43:31.393Z,62.88
2018-09-20T01:46:00.224Z,63.63
2018-09-20T01:48:29.097Z,64.25
2018-09-20T01:50:57.914Z,64.02
2018-09-20T01:53:26.723Z,64.02
2018-09-20T01:55:55.573Z,64.23
2018-09-20T01:58:24.405Z,64.51
2018-09-20T02:00:53.252Z,63.43
2018-09-20T02:03:22.105Z,64.32
2018-09-20T02:05:50.982Z,64.35
2018-09-20T02:08:19.824Z,64.15
2018-09-20T02:10:48.655Z,64.83
2018-09-20T02:13:17.515Z,65.02
2018-09-20T02:15:46.344Z,65.21
2018-09-20T02:18:15.188Z,65.17
2018-09-20T02:20:44.018Z,65.25
2018-09-20T02:23:12.844Z,64.25
2018-09-20T02:25:41.749Z,65.40
2018-09-20T02:28:10.580Z,63.86
2018-09-20T02:30:39.418Z,64.43
2018-09-20T02:33:08.225Z,64.80
2018-09-20T02:35:37.123Z,65.32
2018-09-20T02:38:05.897Z,65.24
2018-09-20T02:40:34.770Z,65.36
2018-09-20T02:43:03.597Z,65.55
2018-09-20T02:45:32.405Z,65.67
2018-09-20T02:48:01.286Z,65.57
2018-09-20T02:50:30.152Z,66.16
2018-09-20T02:52:58.964Z,66.08
2018-09-20T02:55:27.847Z,66.29
2018-09-20T02:57:56.688Z,66.80
2018-09-20T03:00:25.513Z,66.15
2018-09-20T03:02:54.325Z,66.64
2018-09-20T03:05:23.133Z,66.65
2018-09-20T03:07:51.978Z,66.36
2018-09-20T03:10:20.823Z,66.24
2018-09-20T03:12:49.750Z,66.34
2018-09-20T03:15:18.570Z,66.76
2018-09-20T03:17:47.437Z,66.32
2018-09-20T03:20:16.260Z,66.52
2018-09-20T03:22:45.114Z,65.53
2018-09-20T03:25:13.952Z,66.18
2018-09-20T03:27:42.798Z,65.96
2018-09-20T03:30:11.692Z,66.28
2018-09-20T03:32:40.480Z,66.54
2018-09-20T03:35:09.330Z,66.88
2018-09-20T03:37:38.170Z,67.13
2018-09-20T03:40:07.048Z,66.72
2018-09-20T03:42:35.877Z,66.36
2018-09-20T03:45:04.725Z,66.35
2018-09-20T03:47:33.575Z,66.68
2018-09-20T03:50:02.447Z,65.53
2018-09-20T03:52:31.257Z,65.32
2018-09-20T03:55:00.078Z,65.95
2018-09-20T03:57:28.933Z,66.22
2018-09-20T03:59:57.759Z,66.38
2018-09-20T04:02:26.619Z,66.51
2018-09-20T04:04:55.463Z,66.72
2018-09-20T04:07:24.313Z,66.98
2018-09-20T04:09:53.171Z,66.89
2018-09-20T04:12:22.001Z,66.98
2018-09-20T04:14:50.832Z,67.16
2018-09-20T04:17:19.696Z,66.50
2018-09-20T04:19:48.524Z,67.26
2018-09-20T04:22:17.386Z,67.56
2018-09-20T04:24:46.223Z,67.52
2018-09-20T04:27:15.083Z,68.05
2018-09-20T04:29:43.935Z,68.24
2018-09-20T04:32:12.746Z,68.16
2018-09-20T04:34:41.582Z,67.96
2018-09-20T04:37:10.408Z,68.20
2018-09-20T04:39:39.266Z,67.90
2018-09-20T04:42:08.079Z,68.39
2018-09-20T04:44:36.947Z,68.34
2018-09-20T04:47:06.032Z,68.83
2018-09-20T04:49:34.893Z,68.44
2018-09-20T04:52:03.726Z,68.66
2018-09-20T04:54:32.569Z,68.58
2018-09-20T04:57:01.422Z,68.81
2018-09-20T04:59:30.265Z,68.57
2018-09-20T05:01:59.118Z,68.66
2018-09-20T05:04:27.965Z,68.69
2018-09-20T05:06:56.800Z,68.25
2018-09-20T05:09:25.726Z,68.53
2018-09-20T05:11:54.487Z,68.74
2018-09-20T05:14:23.341Z,68.39
2018-09-20T05:16:52.260Z,68.23
2018-09-20T05:19:21.168Z,68.14
2018-09-20T05:21:49.976Z,67.79
2018-09-20T05:24:18.825Z,67.83
2018-09-20T05:26:47.690Z,68.09
2018-09-20T05:29:16.581Z,66.91
2018-09-20T05:31:45.428Z,67.93
2018-09-20T05:34:14.271Z,67.76
2018-09-20T05:36:43.165Z,67.74
2018-09-20T05:39:12.410Z,66.64
2018-09-20T05:41:41.289Z,67.58
2018-09-20T05:44:10.700Z,67.57
2018-09-20T05:46:40.326Z,67.51
2018-09-20T05:49:09.167Z,67.72
2018-09-20T05:51:38.165Z,67.81
2018-09-20T05:54:07.315Z,67.61
2018-09-20T05:56:36.167Z,68.21
2018-09-20T05:59:05.301Z,67.94
2018-09-20T06:01:34.184Z,67.70
2018-09-20T06:04:03.056Z,67.52
2018-09-20T06:06:31.883Z,67.51
2018-09-20T06:09:00.738Z,67.78
2018-09-20T06:11:29.570Z,67.83
2018-09-20T06:13:58.404Z,67.44
2018-09-20T06:16:27.254Z,67.32
2018-09-20T06:18:56.083Z,67.17
2018-09-20T06:21:24.948Z,67.39
2018-09-20T06:23:53.790Z,67.54
2018-09-20T06:26:22.656Z,67.24
2018-09-20T06:28:51.530Z,67.18
2018-09-20T06:31:20.497Z,66.88
2018-09-20T06:33:49.296Z,65.41
2018-09-20T06:36:18.135Z,66.11
2018-09-20T06:38:46.976Z,64.91
2018-09-20T06:41:15.797Z,65.60
2018-09-20T06:43:44.662Z,65.98
2018-09-20T06:46:13.540Z,65.62
2018-09-20T06:48:42.440Z,65.50
2018-09-20T06:51:11.261Z,65.85
2018-09-20T06:53:40.509Z,65.89
2018-09-20T06:56:09.328Z,66.13
2018-09-20T06:58:38.208Z,66.00
2018-09-20T07:01:07.049Z,65.97
2018-09-20T07:03:35.872Z,65.97
2018-09-20T07:06:04.720Z,65.70
2018-09-20T07:08:33.711Z,65.74
2018-09-20T07:11:02.547Z,65.74
2018-09-20T07:13:31.750Z,65.33
2018-09-20T07:16:00.493Z,65.17
2018-09-20T07:18:29.343Z,64.14
2018-09-20T07:20:58.212Z,64.98
2018-09-20T07:23:27.069Z,65.23
2018-09-20T07:25:55.937Z,64.54
2018-09-20T07:28:24.812Z,64.60
2018-09-20T07:30:53.680Z,64.31
2018-09-20T07:33:22.522Z,63.75
2018-09-20T07:35:51.346Z,62.11
2018-09-20T07:38:20.184Z,63.26
2018-09-20T07:40:49.006Z,63.08
2018-09-20T07:43:17.844Z,62.77
2018-09-20T07:45:46.733Z,62.77
2018-09-20T07:48:15.553Z,62.25
2018-09-20T07:50:44.377Z,61.47
2018-09-20T07:53:13.213Z,61.11
2018-09-20T07:55:42.087Z,60.75
2018-09-20T07:58:10.912Z,60.12
2018-09-20T08:00:39.766Z,59.56
2018-09-20T08:03:08.600Z,58.07
2018-09-20T08:05:37.463Z,56.67
2018-09-20T08:08:06.334Z,55.95
2018-09-20T08:10:35.176Z,56.24
2018-09-20T08:13:04.126Z,56.64
2018-09-20T08:15:32.945Z,57.17
2018-09-20T08:18:01.804Z,57.14
2018-09-20T08:20:30.671Z,57.25
2018-09-20T08:22:59.518Z,56.26
2018-09-20T08:25:28.370Z,57.43
2018-09-20T08:27:57.207Z,57.84
2018-09-20T08:30:26.025Z,56.60
2018-09-20T08:32:54.931Z,57.51
2018-09-20T08:35:23.794Z,58.00
2018-09-20T08:37:52.724Z,58.61
2018-09-20T08:40:21.495Z,57.44
2018-09-20T08:42:50.381Z,57.98
2018-09-20T08:45:19.206Z,57.89
2018-09-20T08:47:48.020Z,58.25
2018-09-20T08:50:17.401Z,57.67
2018-09-20T08:52:46.308Z,57.97
2018-09-20T08:55:15.246Z,57.84
2018-09-20T08:57:56.073Z,58.74
2018-09-20T09:00:26.432Z,58.24
2018-09-20T09:02:55.252Z,58.12
2018-09-20T09:05:24.067Z,57.64
2018-09-20T09:07:52.948Z,56.91
2018-09-20T09:10:21.872Z,56.54
2018-09-20T09:12:50.713Z,54.53
2018-09-20T09:15:19.552Z,54.59
2018-09-20T09:17:48.388Z,54.97
2018-09-20T09:22:55.110Z,53.39
2018-09-20T09:25:23.998Z,54.67
2018-09-20T09:27:52.829Z,53.24
2018-09-20T09:30:21.660Z,53.45
2018-09-20T09:32:50.494Z,55.23
2018-09-20T09:35:19.354Z,54.37
2018-09-20T09:37:48.204Z,55.47
2018-09-20T09:40:17.413Z,57.38
2018-09-20T09:42:46.242Z,58.04
2018-09-20T09:45:15.088Z,58.47
2018-09-20T09:47:43.919Z,58.49
2018-09-20T09:50:12.790Z,56.88
2018-09-20T09:52:41.814Z,58.00
2018-09-20T09:55:10.671Z,58.44
2018-09-20T09:57:39.468Z,58.20
2018-09-20T10:00:08.286Z,55.80
2018-09-20T10:02:37.244Z,56.13
2018-09-20T10:05:05.996Z,55.58
2018-09-20T10:07:34.819Z,55.52
2018-09-20T10:10:03.693Z,55.20
2018-09-20T10:12:32.499Z,53.05
2018-09-20T10:15:01.363Z,48.49
2018-09-20T10:17:30.181Z,47.49
2018-09-20T10:19:59.106Z,46.54
2018-09-20T10:22:27.861Z,46.08
2018-09-20T10:24:56.701Z,43.56
2018-09-20T10:27:25.542Z,43.35
2018-09-20T10:29:54.367Z,45.39
2018-09-20T10:32:23.208Z,43.94
2018-09-20T10:34:52.047Z,42.17
2018-09-20T10:37:21.243Z,41.22
2018-09-20T10:39:57.371Z,39.52
2018-09-20T10:42:25.111Z,39.75
2018-09-20T10:44:58.300Z,40.20
2018-09-20T10:47:26.208Z,38.04
2018-09-20T10:49:55.551Z,39.32
2018-09-20T10:52:24.744Z,41.66
2018-09-20T10:54:57.001Z,42.42
2018-09-20T10:57:26.232Z,40.68
2018-09-20T10:59:55.512Z,39.80
2018-09-20T11:02:27.429Z,39.23
2018-09-20T11:04:56.584Z,39.35
2018-09-20T11:07:28.691Z,38.19
2018-09-20T11:09:57.853Z,38.17
2018-09-20T11:12:27.228Z,38.91
2018-09-20T11:14:56.251Z,38.85
2018-09-20T11:17:25.498Z,39.58
2018-09-20T11:19:54.723Z,40.49
2018-09-20T11:25:00.720Z,40.72
2018-09-20T11:27:32.222Z,41.15
2018-09-20T11:29:59.314Z,40.92
2018-09-20T11:32:30.864Z,40.49
2018-09-20T11:35:00.085Z,39.88
2018-09-20T11:37:29.422Z,39.09
2018-09-20T11:39:58.283Z,39.92
2018-09-20T11:42:28.197Z,40.29
2018-09-20T11:44:57.736Z,40.40
2018-09-20T11:47:26.868Z,40.69
2018-09-20T11:49:55.794Z,40.68
2018-09-20T11:52:27.828Z,41.58
2018-09-20T11:54:56.864Z,39.61
2018-09-20T11:57:25.976Z,41.12
2018-09-20T11:59:57.744Z,41.16
2018-09-20T12:02:26.781Z,41.41
2018-09-20T12:04:55.971Z,41.30
2018-09-20T12:07:24.913Z,41.95
2018-09-20T12:09:54.242Z,41.24
2018-09-20T12:12:23.382Z,39.58
2018-09-20T12:14:52.495Z,40.62
2018-09-20T12:17:24.519Z,41.10
2018-09-20T12:19:59.753Z,42.13
2018-09-20T12:22:25.933Z,42.61
2018-09-20T12:24:57.420Z,43.17
2018-09-20T12:27:30.894Z,42.51
2018-09-20T12:30:01.112Z,41.97
2018-09-20T12:32:30.291Z,42.57
2018-09-20T12:34:59.567Z,43.20
2018-09-20T12:37:38.894Z,42.07
2018-09-20T12:40:09.104Z,41.88
2018-09-20T12:42:40.664Z,43.02
2018-09-20T12:45:10.446Z,42.92
2018-09-20T12:47:39.641Z,42.49
2018-09-20T12:50:08.741Z,42.59
2018-09-20T12:52:39.681Z,42.12
2018-09-20T12:55:11.367Z,42.47
2018-09-20T12:57:43.268Z,42.13
2018-09-20T13:00:18.263Z,41.83
2018-09-20T13:02:49.979Z,40.47
2018-09-20T13:05:19.070Z,40.94
2018-09-20T13:07:48.341Z,40.27
2018-09-20T13:10:19.454Z,40.91
2018-09-20T13:12:48.623Z,40.94
2018-09-20T13:15:17.688Z,39.03
2018-09-20T13:17:46.789Z,38.98
2018-09-20T13:20:16.020Z,39.13
2018-09-20T13:22:45.173Z,40.29
2018-09-20T13:25:16.301Z,40.15
2018-09-20T13:27:45.728Z,40.64
2018-09-20T13:30:14.729Z,39.94
2018-09-20T13:32:46.401Z,40.53
2018-09-20T13:35:20.669Z,40.50
2018-09-20T13:37:50.016Z,40.00
2018-09-20T13:40:26.389Z,40.79
2018-09-20T13:42:55.967Z,40.62
2018-09-20T13:45:25.141Z,40.61
2018-09-20T13:47:57.209Z,40.75
2018-09-20T13:50:26.282Z,40.51
2018-09-20T13:52:57.870Z,41.06
2018-09-20T13:55:27.105Z,40.82
2018-09-20T13:57:56.838Z,40.38
2018-09-20T14:00:27.766Z,40.93
2018-09-20T14:02:57.437Z,40.61
2018-09-20T14:05:26.948Z,39.92
2018-09-20T14:07:56.616Z,40.09
2018-09-20T14:10:29.022Z,40.11
2018-09-20T14:12:59.925Z,40.01
2018-09-20T14:15:28.833Z,39.56
2018-09-20T14:17:57.950Z,38.91
2018-09-20T14:20:27.052Z,40.11
2018-09-20T14:22:56.063Z,40.46
2018-09-20T14:25:27.248Z,39.50
2018-09-20T14:27:56.382Z,40.64
2018-09-20T14:30:25.429Z,40.28
2018-09-20T14:32:56.713Z,41.32
2018-09-20T14:35:26.108Z,41.46
2018-09-20T14:37:55.226Z,40.58
2018-09-20T14:40:24.295Z,40.83
2018-09-20T14:42:53.418Z,39.40
2018-09-20T14:45:22.449Z,39.90
2018-09-20T14:47:51.496Z,40.36
2018-09-20T14:50:20.676Z,40.57
2018-09-20T14:52:50.143Z,40.25
2018-09-20T14:55:19.188Z,40.81
2018-09-20T14:57:48.406Z,40.42
2018-09-20T15:00:17.481Z,40.06
2018-09-20T15:02:46.638Z,39.94
2018-09-20T15:05:15.820Z,41.09
2018-09-20T15:07:45.061Z,41.03
2018-09-20T15:10:14.173Z,41.28
2018-09-20T15:12:43.580Z,41.61
2018-09-20T15:15:15.620Z,41.68
2018-09-20T15:17:44.617Z,41.02
2018-09-20T15:20:14.020Z,41.44
2018-09-20T15:22:45.980Z,41.72
2018-09-20T15:25:15.003Z,41.33
2018-09-20T15:27:46.442Z,41.35
2018-09-20T15:30:15.860Z,41.95
2018-09-20T15:32:44.851Z,42.09
2018-09-20T15:35:14.264Z,41.75
2018-09-20T15:37:43.475Z,42.06
2018-09-20T15:40:12.489Z,41.81
2018-09-20T15:42:41.620Z,41.53
2018-09-20T15:45:10.690Z,42.12
2018-09-20T15:47:39.748Z,41.72
2018-09-20T15:50:08.853Z,42.79
2018-09-20T15:52:38.008Z,42.92
2018-09-20T15:55:07.135Z,43.16
2018-09-20T15:57:36.583Z,42.70
2018-09-20T16:00:06.436Z,43.19
2018-09-20T16:02:35.521Z,42.96
2018-09-20T16:05:07.342Z,43.14
2018-09-20T16:07:36.369Z,43.66
2018-09-20T16:10:05.458Z,43.50
2018-09-20T16:12:37.874Z,43.27
2018-09-20T16:15:09.336Z,43.64
2018-09-20T16:17:38.179Z,43.57
2018-09-20T16:20:07.750Z,43.08
2018-09-20T16:22:36.592Z,43.65
2018-09-20T16:25:06.069Z,43.49
2018-09-20T16:27:34.975Z,43.65
2018-09-20T16:30:46.725Z,43.51
2018-09-20T16:33:53.576Z,44.19
2018-09-20T16:36:40.513Z,43.91
2018-09-20T16:39:16.552Z,43.54
2018-09-20T16:41:46.775Z,43.92
2018-09-20T16:44:15.651Z,44.02
2018-09-20T16:46:44.462Z,44.02
2018-09-20T16:49:13.330Z,44.58
2018-09-20T16:51:42.204Z,44.64
2018-09-20T16:54:11.031Z,44.65
2018-09-20T16:56:39.902Z,44.76
2018-09-20T16:59:08.804Z,44.80
2018-09-20T17:01:37.654Z,44.07
2018-09-20T17:04:06.491Z,44.76
2018-09-20T17:06:35.337Z,44.67
2018-09-20T17:09:06.198Z,45.02
2018-09-20T17:11:35.033Z,45.40
2018-09-20T17:14:03.879Z,45.20
2018-09-20T17:16:32.822Z,45.57
2018-09-20T17:19:01.633Z,45.70
2018-09-20T17:21:30.450Z,44.98
2018-09-20T17:23:59.293Z,46.00
2018-09-20T17:26:28.144Z,46.33
2018-09-20T17:28:56.992Z,46.55
2018-09-20T17:31:25.816Z,47.01
2018-09-20T17:33:54.632Z,47.07
2018-09-20T17:36:23.703Z,47.24
2018-09-20T17:38:53.181Z,47.42
2018-09-20T17:41:24.933Z,47.56
2018-09-20T17:43:55.646Z,47.65
2018-09-20T17:46:24.455Z,48.01
2018-09-20T17:48:53.292Z,48.31
2018-09-20T17:51:22.272Z,48.59
2018-09-20T17:53:51.411Z,48.41
2018-09-20T17:56:20.527Z,48.58
2018-09-20T17:58:49.587Z,48.79
2018-09-20T18:01:18.445Z,48.99
2018-09-20T18:03:47.251Z,49.10
2018-09-20T18:06:16.073Z,49.43
2018-09-20T18:08:44.912Z,49.52
2018-09-20T18:11:13.716Z,49.48
2018-09-20T18:13:42.574Z,49.69
2018-09-20T18:16:11.388Z,49.20
2018-09-20T18:18:40.196Z,50.36
2018-09-20T18:21:09.027Z,50.12
2018-09-20T18:23:37.852Z,50.65
2018-09-20T18:26:06.702Z,50.60
2018-09-20T18:28:35.636Z,49.53
2018-09-20T18:31:04.487Z,50.66
2018-09-20T18:33:33.316Z,50.69
2018-09-20T18:36:02.153Z,50.90
2018-09-20T18:38:31.006Z,50.26
2018-09-20T18:40:59.856Z,50.73
2018-09-20T18:43:28.673Z,50.99
2018-09-20T18:45:57.496Z,50.99
2018-09-20T18:48:26.427Z,51.07
2018-09-20T18:50:55.180Z,51.33
2018-09-20T18:53:24.017Z,50.75
2018-09-20T18:55:52.958Z,51.68
2018-09-20T18:58:21.817Z,51.62
2018-09-20T19:00:52.395Z,51.76
2018-09-20T19:03:21.762Z,51.81
2018-09-20T19:05:50.581Z,52.19
2018-09-20T19:08:19.666Z,52.05
2018-09-20T19:10:48.501Z,52.45
2018-09-20T19:13:17.321Z,52.42
2018-09-20T19:15:46.180Z,53.12
2018-09-20T19:18:14.997Z,52.98
2018-09-20T19:20:43.843Z,52.72
2018-09-20T19:23:12.684Z,52.98
2018-09-20T19:25:41.519Z,53.20
2018-09-20T19:28:10.382Z,53.04
2018-09-20T19:30:39.280Z,53.22
2018-09-20T19:33:08.122Z,53.11
2018-09-20T19:35:36.938Z,53.24
2018-09-20T19:38:05.794Z,53.35
2018-09-20T19:40:34.643Z,53.10
2018-09-20T19:43:03.457Z,53.32
2018-09-20T19:45:32.275Z,53.29
2018-09-20T19:48:01.130Z,53.58
2018-09-20T19:50:29.957Z,53.51
2018-09-20T19:52:58.795Z,53.35
2018-09-20T19:55:27.622Z,53.14
2018-09-20T19:57:56.464Z,53.36
2018-09-20T20:00:25.353Z,53.15
2018-09-20T20:02:54.127Z,53.04
2018-09-20T20:05:22.975Z,53.07
2018-09-20T20:07:51.795Z,53.02
2018-09-20T20:10:20.612Z,52.79
2018-09-20T20:12:49.435Z,52.92
2018-09-20T20:15:18.297Z,52.72
2018-09-20T20:17:47.284Z,52.64
2018-09-20T20:20:16.124Z,52.88
2018-09-20T20:22:44.943Z,52.79
2018-09-20T20:25:13.776Z,52.43
2018-09-20T20:27:42.643Z,52.33
2018-09-20T20:30:11.497Z,52.31
2018-09-20T20:32:40.447Z,52.18
2018-09-20T20:35:09.152Z,52.50
2018-09-20T20:37:37.982Z,52.32
2018-09-20T20:40:06.982Z,52.30
2018-09-20T20:42:35.819Z,52.08
2018-09-20T20:45:04.821Z,52.26
2018-09-20T20:47:33.562Z,52.40
2018-09-20T20:50:02.577Z,51.52
2018-09-20T20:52:31.429Z,51.92
2018-09-20T20:55:00.289Z,51.86
2018-09-20T20:57:29.153Z,52.13
2018-09-20T20:59:58.077Z,52.20
2018-09-20T21:02:27.136Z,52.31
2018-09-20T21:04:55.987Z,52.37
2018-09-20T21:07:24.833Z,52.50
2018-09-20T21:09:53.680Z,52.32
2018-09-20T21:12:22.515Z,52.38
2018-09-20T21:14:51.378Z,52.49
2018-09-20T21:17:20.260Z,52.40
2018-09-20T21:19:49.033Z,52.81
2018-09-20T21:22:17.886Z,52.79
2018-09-20T21:24:46.703Z,52.83
2018-09-20T21:27:15.555Z,52.61
2018-09-20T21:29:44.388Z,52.07
2018-09-20T21:32:13.259Z,52.82
2018-09-20T21:34:42.095Z,52.80
2018-09-20T21:37:10.928Z,53.16
2018-09-20T21:39:39.761Z,52.84
2018-09-20T21:42:08.608Z,53.03
2018-09-20T21:44:37.440Z,52.99
2018-09-20T21:47:06.332Z,53.12
2018-09-20T21:49:35.172Z,53.12
2018-09-20T21:52:04.028Z,53.00
2018-09-20T21:54:32.867Z,53.20
2018-09-20T21:57:01.694Z,52.83
2018-09-20T21:59:30.566Z,52.82
2018-09-20T22:02:03.174Z,52.94
2018-09-20T22:04:32.880Z,52.76
2018-09-20T22:07:01.735Z,52.84
2018-09-20T22:09:31.173Z,53.01
2018-09-20T22:12:00.054Z,52.65
2018-09-20T22:14:28.871Z,52.78
2018-09-20T22:16:57.693Z,52.80
2018-09-20T22:19:26.552Z,52.73
2018-09-20T22:21:55.402Z,52.87
2018-09-20T22:24:24.215Z,52.93
2018-09-20T22:26:53.048Z,52.83
2018-09-20T22:29:21.901Z,52.90
2018-09-20T22:31:50.733Z,53.18
2018-09-20T22:34:19.557Z,53.00
2018-09-20T22:36:48.462Z,52.84
2018-09-20T22:39:17.290Z,52.54
2018-09-20T22:41:46.113Z,52.72
2018-09-20T22:44:14.933Z,52.70
2018-09-20T22:46:43.773Z,52.51
2018-09-20T22:49:12.623Z,52.43
2018-09-20T22:51:41.473Z,52.57
2018-09-20T22:54:10.349Z,52.54
2018-09-20T22:56:39.193Z,52.67
2018-09-20T22:59:08.047Z,52.40
2018-09-20T23:01:36.873Z,52.66
2018-09-20T23:04:05.695Z,52.68
2018-09-20T23:06:34.536Z,52.55
2018-09-20T23:09:03.376Z,52.78
2018-09-20T23:11:32.187Z,52.71
2018-09-20T23:14:01.002Z,52.59
2018-09-20T23:16:29.855Z,52.78
2018-09-20T23:18:58.686Z,52.92
2018-09-20T23:21:27.676Z,51.85
2018-09-20T23:23:56.509Z,52.46
2018-09-20T23:26:25.330Z,52.37
2018-09-20T23:28:54.147Z,52.57
2018-09-20T23:31:22.983Z,52.73
2018-09-20T23:33:51.817Z,52.79
2018-09-20T23:36:20.663Z,52.67
2018-09-20T23:38:49.467Z,53.04
2018-09-20T23:41:18.283Z,53.02
2018-09-20T23:43:47.114Z,52.26
2018-09-20T23:46:15.941Z,52.95
2018-09-20T23:48:44.809Z,53.15
2018-09-20T23:51:13.636Z,53.43
2018-09-20T23:53:42.504Z,52.38
2018-09-20T23:56:11.374Z,52.65
2018-09-20T23:58:40.206Z,53.03
